sensor_id;sensor_type;location;lat;lon;timestamp;temperature;humidity
6672;DHT22;3372;48.690;12.362;2023-06-26T00:02:25;19.50;27.50
6672;DHT22;3372;48.690;12.362;2023-06-26T00:04:50;19.50;27.20
6672;DHT22;3372;48.690;12.362;2023-06-26T00:07:19;19.40;27.40
6672;DHT22;3372;48.690;12.362;2023-06-26T00:09:45;19.40;27.20
6672;DHT22;3372;48.690;12.362;2023-06-26T00:12:11;19.30;27.20
6672;DHT22;3372;48.690;12.362;2023-06-26T00:14:36;19.30;27.30
6672;DHT22;3372;48.690;12.362;2023-06-26T00:17:02;19.30;27.60
6672;DHT22;3372;48.690;12.362;2023-06-26T00:19:27;19.30;28.00
6672;DHT22;3372;48.690;12.362;2023-06-26T00:21:53;19.20;27.30
6672;DHT22;3372;48.690;12.362;2023-06-26T00:24:19;19.20;27.30
6672;DHT22;3372;48.690;12.362;2023-06-26T00:26:47;19.20;28.50
6672;DHT22;3372;48.690;12.362;2023-06-26T00:29:12;19.20;28.20
6672;DHT22;3372;48.690;12.362;2023-06-26T00:31:38;19.20;27.60
6672;DHT22;3372;48.690;12.362;2023-06-26T00:34:05;19.10;27.80
6672;DHT22;3372;48.690;12.362;2023-06-26T00:36:30;19.00;27.80
6672;DHT22;3372;48.690;12.362;2023-06-26T00:38:56;19.10;27.80
6672;DHT22;3372;48.690;12.362;2023-06-26T00:41:22;19.00;28.00
6672;DHT22;3372;48.690;12.362;2023-06-26T00:43:47;19.00;28.00
6672;DHT22;3372;48.690;12.362;2023-06-26T00:46:14;19.00;28.70
6672;DHT22;3372;48.690;12.362;2023-06-26T00:48:41;18.80;29.30
6672;DHT22;3372;48.690;12.362;2023-06-26T00:51:07;18.90;28.80
6672;DHT22;3372;48.690;12.362;2023-06-26T00:53:34;18.90;28.70
6672;DHT22;3372;48.690;12.362;2023-06-26T00:56:01;18.90;28.60
6672;DHT22;3372;48.690;12.362;2023-06-26T00:58:27;18.90;27.80
6672;DHT22;3372;48.690;12.362;2023-06-26T01:00:54;19.00;27.50
6672;DHT22;3372;48.690;12.362;2023-06-26T01:03:24;18.90;27.30
6672;DHT22;3372;48.690;12.362;2023-06-26T01:05:52;18.90;28.00
6672;DHT22;3372;48.690;12.362;2023-06-26T01:08:18;18.80;27.70
6672;DHT22;3372;48.690;12.362;2023-06-26T01:10:44;18.80;28.10
6672;DHT22;3372;48.690;12.362;2023-06-26T01:13:11;18.70;27.70
6672;DHT22;3372;48.690;12.362;2023-06-26T01:15:37;18.70;28.30
6672;DHT22;3372;48.690;12.362;2023-06-26T01:18:03;18.60;28.30
6672;DHT22;3372;48.690;12.362;2023-06-26T01:20:31;18.60;28.50
6672;DHT22;3372;48.690;12.362;2023-06-26T01:23:05;18.60;28.60
6672;DHT22;3372;48.690;12.362;2023-06-26T01:25:35;18.50;29.30
6672;DHT22;3372;48.690;12.362;2023-06-26T01:28:05;18.50;28.80
6672;DHT22;3372;48.690;12.362;2023-06-26T01:30:32;18.60;29.10
6672;DHT22;3372;48.690;12.362;2023-06-26T01:32:58;18.60;28.90
6672;DHT22;3372;48.690;12.362;2023-06-26T01:35:25;18.60;29.00
6672;DHT22;3372;48.690;12.362;2023-06-26T01:37:51;18.50;28.90
6672;DHT22;3372;48.690;12.362;2023-06-26T01:40:17;18.30;29.10
6672;DHT22;3372;48.690;12.362;2023-06-26T01:42:42;18.40;29.70
6672;DHT22;3372;48.690;12.362;2023-06-26T01:45:37;18.30;29.30
6672;DHT22;3372;48.690;12.362;2023-06-26T01:48:06;18.40;31.00
6672;DHT22;3372;48.690;12.362;2023-06-26T01:50:33;18.40;28.90
6672;DHT22;3372;48.690;12.362;2023-06-26T01:53:17;18.30;29.30
6672;DHT22;3372;48.690;12.362;2023-06-26T01:55:53;18.30;30.60
6672;DHT22;3372;48.690;12.362;2023-06-26T01:58:24;18.10;30.80
6672;DHT22;3372;48.690;12.362;2023-06-26T02:00:50;18.20;29.60
6672;DHT22;3372;48.690;12.362;2023-06-26T02:03:16;18.20;29.50
6672;DHT22;3372;48.690;12.362;2023-06-26T02:05:41;18.10;29.80
6672;DHT22;3372;48.690;12.362;2023-06-26T02:08:08;18.10;29.50
6672;DHT22;3372;48.690;12.362;2023-06-26T02:10:34;18.10;29.20
6672;DHT22;3372;48.690;12.362;2023-06-26T02:13:00;18.10;29.40
6672;DHT22;3372;48.690;12.362;2023-06-26T02:15:26;18.10;29.60
6672;DHT22;3372;48.690;12.362;2023-06-26T02:17:52;18.10;29.20
6672;DHT22;3372;48.690;12.362;2023-06-26T02:20:17;18.10;29.50
6672;DHT22;3372;48.690;12.362;2023-06-26T02:22:43;18.10;30.00
6672;DHT22;3372;48.690;12.362;2023-06-26T02:25:09;18.10;29.80
6672;DHT22;3372;48.690;12.362;2023-06-26T02:27:35;18.00;29.80
6672;DHT22;3372;48.690;12.362;2023-06-26T02:30:01;18.00;29.60
6672;DHT22;3372;48.690;12.362;2023-06-26T02:32:26;17.90;29.80
6672;DHT22;3372;48.690;12.362;2023-06-26T02:34:52;17.90;29.80
6672;DHT22;3372;48.690;12.362;2023-06-26T02:37:18;17.90;30.30
6672;DHT22;3372;48.690;12.362;2023-06-26T02:39:43;17.90;30.00
6672;DHT22;3372;48.690;12.362;2023-06-26T02:42:09;17.80;30.70
6672;DHT22;3372;48.690;12.362;2023-06-26T02:44:34;17.90;30.30
6672;DHT22;3372;48.690;12.362;2023-06-26T02:47:00;17.90;30.40
6672;DHT22;3372;48.690;12.362;2023-06-26T02:49:25;17.90;29.90
6672;DHT22;3372;48.690;12.362;2023-06-26T02:51:51;17.80;29.70
6672;DHT22;3372;48.690;12.362;2023-06-26T02:54:16;17.80;30.10
6672;DHT22;3372;48.690;12.362;2023-06-26T02:56:42;17.80;30.50
6672;DHT22;3372;48.690;12.362;2023-06-26T02:59:08;17.80;31.00
6672;DHT22;3372;48.690;12.362;2023-06-26T03:01:33;17.80;31.00
6672;DHT22;3372;48.690;12.362;2023-06-26T03:03:59;17.80;30.50
6672;DHT22;3372;48.690;12.362;2023-06-26T03:06:26;17.80;30.60
6672;DHT22;3372;48.690;12.362;2023-06-26T03:08:53;17.80;30.00
6672;DHT22;3372;48.690;12.362;2023-06-26T03:11:19;17.80;30.10
6672;DHT22;3372;48.690;12.362;2023-06-26T03:13:44;17.80;30.20
6672;DHT22;3372;48.690;12.362;2023-06-26T03:16:10;17.80;30.40
6672;DHT22;3372;48.690;12.362;2023-06-26T03:18:35;17.70;31.10
6672;DHT22;3372;48.690;12.362;2023-06-26T03:21:01;17.70;31.30
6672;DHT22;3372;48.690;12.362;2023-06-26T03:23:26;17.70;31.20
6672;DHT22;3372;48.690;12.362;2023-06-26T03:25:53;17.70;30.90
6672;DHT22;3372;48.690;12.362;2023-06-26T03:28:18;17.70;30.60
6672;DHT22;3372;48.690;12.362;2023-06-26T03:30:44;17.70;31.10
6672;DHT22;3372;48.690;12.362;2023-06-26T03:33:10;17.70;32.50
6672;DHT22;3372;48.690;12.362;2023-06-26T03:35:36;17.70;31.20
6672;DHT22;3372;48.690;12.362;2023-06-26T03:38:03;17.70;31.70
6672;DHT22;3372;48.690;12.362;2023-06-26T03:40:28;17.70;31.60
6672;DHT22;3372;48.690;12.362;2023-06-26T03:42:54;17.70;31.20
6672;DHT22;3372;48.690;12.362;2023-06-26T03:45:19;17.60;31.80
6672;DHT22;3372;48.690;12.362;2023-06-26T03:47:45;17.60;32.20
6672;DHT22;3372;48.690;12.362;2023-06-26T03:50:17;17.60;32.30
6672;DHT22;3372;48.690;12.362;2023-06-26T03:52:42;17.60;33.00
6672;DHT22;3372;48.690;12.362;2023-06-26T03:55:08;17.70;31.90
6672;DHT22;3372;48.690;12.362;2023-06-26T03:57:34;17.70;32.80
6672;DHT22;3372;48.690;12.362;2023-06-26T03:59:59;17.70;32.40
6672;DHT22;3372;48.690;12.362;2023-06-26T04:02:25;17.60;32.40
6672;DHT22;3372;48.690;12.362;2023-06-26T04:04:51;17.70;32.70
6672;DHT22;3372;48.690;12.362;2023-06-26T04:07:18;17.70;32.90
6672;DHT22;3372;48.690;12.362;2023-06-26T04:09:43;17.70;32.90
6672;DHT22;3372;48.690;12.362;2023-06-26T04:12:09;17.60;33.70
6672;DHT22;3372;48.690;12.362;2023-06-26T04:14:35;17.70;34.10
6672;DHT22;3372;48.690;12.362;2023-06-26T04:17:00;17.70;33.80
6672;DHT22;3372;48.690;12.362;2023-06-26T04:19:29;17.80;34.50
6672;DHT22;3372;48.690;12.362;2023-06-26T04:21:55;17.80;35.30
6672;DHT22;3372;48.690;12.362;2023-06-26T04:24:21;17.80;34.10
6672;DHT22;3372;48.690;12.362;2023-06-26T04:26:46;17.80;34.20
6672;DHT22;3372;48.690;12.362;2023-06-26T04:29:12;17.90;33.90
6672;DHT22;3372;48.690;12.362;2023-06-26T04:31:38;17.90;33.90
6672;DHT22;3372;48.690;12.362;2023-06-26T04:34:04;17.90;34.70
6672;DHT22;3372;48.690;12.362;2023-06-26T04:36:30;17.90;34.70
6672;DHT22;3372;48.690;12.362;2023-06-26T04:38:57;18.00;34.20
6672;DHT22;3372;48.690;12.362;2023-06-26T04:41:22;18.00;37.40
6672;DHT22;3372;48.690;12.362;2023-06-26T04:43:48;18.00;36.50
6672;DHT22;3372;48.690;12.362;2023-06-26T04:46:13;18.10;36.30
6672;DHT22;3372;48.690;12.362;2023-06-26T04:48:39;18.20;37.00
6672;DHT22;3372;48.690;12.362;2023-06-26T04:51:05;18.10;36.10
6672;DHT22;3372;48.690;12.362;2023-06-26T04:53:30;18.20;36.90
6672;DHT22;3372;48.690;12.362;2023-06-26T04:55:56;18.30;37.00
6672;DHT22;3372;48.690;12.362;2023-06-26T04:58:21;18.30;37.70
6672;DHT22;3372;48.690;12.362;2023-06-26T05:00:47;18.40;36.40
6672;DHT22;3372;48.690;12.362;2023-06-26T05:03:14;18.50;37.60
6672;DHT22;3372;48.690;12.362;2023-06-26T05:05:39;18.90;38.00
6672;DHT22;3372;48.690;12.362;2023-06-26T05:08:21;19.70;36.40
6672;DHT22;3372;48.690;12.362;2023-06-26T05:10:46;20.50;38.40
6672;DHT22;3372;48.690;12.362;2023-06-26T05:13:12;21.10;34.10
6672;DHT22;3372;48.690;12.362;2023-06-26T05:15:41;21.60;31.30
6672;DHT22;3372;48.690;12.362;2023-06-26T05:18:07;21.90;31.60
6672;DHT22;3372;48.690;12.362;2023-06-26T05:20:34;22.00;29.60
6672;DHT22;3372;48.690;12.362;2023-06-26T05:23:04;22.30;28.40
6672;DHT22;3372;48.690;12.362;2023-06-26T05:25:30;22.50;27.10
6672;DHT22;3372;48.690;12.362;2023-06-26T05:27:57;22.70;27.90
6672;DHT22;3372;48.690;12.362;2023-06-26T05:30:24;23.10;27.80
6672;DHT22;3372;48.690;12.362;2023-06-26T05:32:51;23.20;26.80
6672;DHT22;3372;48.690;12.362;2023-06-26T05:35:18;23.50;24.60
6672;DHT22;3372;48.690;12.362;2023-06-26T05:37:45;23.70;26.20
6672;DHT22;3372;48.690;12.362;2023-06-26T05:40:11;23.70;23.20
6672;DHT22;3372;48.690;12.362;2023-06-26T05:42:37;24.00;24.90
6672;DHT22;3372;48.690;12.362;2023-06-26T05:45:03;24.20;23.70
6672;DHT22;3372;48.690;12.362;2023-06-26T05:47:28;24.30;21.60
6672;DHT22;3372;48.690;12.362;2023-06-26T05:49:54;24.50;23.30
6672;DHT22;3372;48.690;12.362;2023-06-26T05:52:20;24.90;22.60
6672;DHT22;3372;48.690;12.362;2023-06-26T05:54:46;25.00;20.40
6672;DHT22;3372;48.690;12.362;2023-06-26T05:57:12;25.20;20.80
6672;DHT22;3372;48.690;12.362;2023-06-26T05:59:40;25.50;19.00
6672;DHT22;3372;48.690;12.362;2023-06-26T06:02:06;25.70;20.90
6672;DHT22;3372;48.690;12.362;2023-06-26T06:04:31;26.10;18.40
6672;DHT22;3372;48.690;12.362;2023-06-26T06:06:57;26.50;17.20
6672;DHT22;3372;48.690;12.362;2023-06-26T06:09:23;26.80;15.30
6672;DHT22;3372;48.690;12.362;2023-06-26T06:11:48;26.80;15.80
6672;DHT22;3372;48.690;12.362;2023-06-26T06:14:14;27.00;14.40
6672;DHT22;3372;48.690;12.362;2023-06-26T06:16:39;27.30;15.10
6672;DHT22;3372;48.690;12.362;2023-06-26T06:19:05;27.50;14.30
6672;DHT22;3372;48.690;12.362;2023-06-26T06:21:33;27.60;13.50
6672;DHT22;3372;48.690;12.362;2023-06-26T06:23:58;27.70;12.90
6672;DHT22;3372;48.690;12.362;2023-06-26T06:26:24;27.90;12.20
6672;DHT22;3372;48.690;12.362;2023-06-26T06:28:49;27.90;12.90
6672;DHT22;3372;48.690;12.362;2023-06-26T06:31:15;27.90;10.90
6672;DHT22;3372;48.690;12.362;2023-06-26T06:33:40;28.00;11.00
6672;DHT22;3372;48.690;12.362;2023-06-26T06:36:06;27.80;10.80
6672;DHT22;3372;48.690;12.362;2023-06-26T06:38:31;27.90;9.30
6672;DHT22;3372;48.690;12.362;2023-06-26T06:40:57;27.80;9.50
6672;DHT22;3372;48.690;12.362;2023-06-26T06:43:23;27.80;9.60
6672;DHT22;3372;48.690;12.362;2023-06-26T06:45:48;28.10;7.20
6672;DHT22;3372;48.690;12.362;2023-06-26T06:48:14;28.10;8.30
6672;DHT22;3372;48.690;12.362;2023-06-26T06:50:39;28.20;9.40
6672;DHT22;3372;48.690;12.362;2023-06-26T06:53:05;28.00;7.10
6672;DHT22;3372;48.690;12.362;2023-06-26T06:55:30;28.10;7.40
6672;DHT22;3372;48.690;12.362;2023-06-26T06:57:56;28.30;6.90
6672;DHT22;3372;48.690;12.362;2023-06-26T07:00:21;28.30;6.90
6672;DHT22;3372;48.690;12.362;2023-06-26T07:02:47;28.30;9.60
6672;DHT22;3372;48.690;12.362;2023-06-26T07:05:13;28.50;9.40
6672;DHT22;3372;48.690;12.362;2023-06-26T07:07:39;28.50;9.50
6672;DHT22;3372;48.690;12.362;2023-06-26T07:10:12;28.70;8.40
6672;DHT22;3372;48.690;12.362;2023-06-26T07:12:38;29.00;8.80
6672;DHT22;3372;48.690;12.362;2023-06-26T07:15:06;29.20;8.70
6672;DHT22;3372;48.690;12.362;2023-06-26T07:17:32;29.30;8.10
6672;DHT22;3372;48.690;12.362;2023-06-26T07:19:59;29.00;7.60
6672;DHT22;3372;48.690;12.362;2023-06-26T07:22:26;29.30;7.60
6672;DHT22;3372;48.690;12.362;2023-06-26T07:24:51;29.20;8.60
6672;DHT22;3372;48.690;12.362;2023-06-26T07:27:17;29.10;6.60
6672;DHT22;3372;48.690;12.362;2023-06-26T07:29:44;29.20;8.50
6672;DHT22;3372;48.690;12.362;2023-06-26T07:32:10;29.50;6.60
6672;DHT22;3372;48.690;12.362;2023-06-26T07:34:36;29.50;8.50
6672;DHT22;3372;48.690;12.362;2023-06-26T07:37:01;29.60;6.90
6672;DHT22;3372;48.690;12.362;2023-06-26T07:39:27;29.90;6.30
6672;DHT22;3372;48.690;12.362;2023-06-26T07:41:52;30.00;7.50
6672;DHT22;3372;48.690;12.362;2023-06-26T07:44:18;29.90;7.30
6672;DHT22;3372;48.690;12.362;2023-06-26T07:46:44;30.00;6.80
6672;DHT22;3372;48.690;12.362;2023-06-26T07:49:12;30.20;5.00
6672;DHT22;3372;48.690;12.362;2023-06-26T07:51:38;30.30;6.20
6672;DHT22;3372;48.690;12.362;2023-06-26T07:54:03;30.20;7.60
6672;DHT22;3372;48.690;12.362;2023-06-26T07:56:29;30.10;5.70
6672;DHT22;3372;48.690;12.362;2023-06-26T07:58:55;30.40;4.90
6672;DHT22;3372;48.690;12.362;2023-06-26T08:01:23;30.30;4.20
6672;DHT22;3372;48.690;12.362;2023-06-26T08:03:48;30.30;5.80
6672;DHT22;3372;48.690;12.362;2023-06-26T08:06:14;30.50;4.60
6672;DHT22;3372;48.690;12.362;2023-06-26T08:08:40;30.50;2.70
6672;DHT22;3372;48.690;12.362;2023-06-26T08:11:05;30.50;4.90
6672;DHT22;3372;48.690;12.362;2023-06-26T08:13:31;30.70;4.10
6672;DHT22;3372;48.690;12.362;2023-06-26T08:15:56;31.00;2.80
6672;DHT22;3372;48.690;12.362;2023-06-26T08:18:22;30.90;3.80
6672;DHT22;3372;48.690;12.362;2023-06-26T08:20:47;30.90;3.10
6672;DHT22;3372;48.690;12.362;2023-06-26T08:23:13;30.90;4.00
6672;DHT22;3372;48.690;12.362;2023-06-26T08:25:38;30.90;2.90
6672;DHT22;3372;48.690;12.362;2023-06-26T08:28:04;30.70;3.60
6672;DHT22;3372;48.690;12.362;2023-06-26T08:30:30;31.00;3.70
6672;DHT22;3372;48.690;12.362;2023-06-26T08:32:55;31.10;4.20
6672;DHT22;3372;48.690;12.362;2023-06-26T08:35:21;31.00;3.60
6672;DHT22;3372;48.690;12.362;2023-06-26T08:37:46;31.20;2.30
6672;DHT22;3372;48.690;12.362;2023-06-26T08:40:12;31.20;3.90
6672;DHT22;3372;48.690;12.362;2023-06-26T08:42:41;31.10;2.60
6672;DHT22;3372;48.690;12.362;2023-06-26T08:45:07;31.10;1.80
6672;DHT22;3372;48.690;12.362;2023-06-26T08:47:34;31.10;3.90
6672;DHT22;3372;48.690;12.362;2023-06-26T08:50:03;31.20;2.90
6672;DHT22;3372;48.690;12.362;2023-06-26T08:52:37;31.00;3.00
6672;DHT22;3372;48.690;12.362;2023-06-26T08:55:09;31.10;1.00
6672;DHT22;3372;48.690;12.362;2023-06-26T08:57:36;31.20;1.70
6672;DHT22;3372;48.690;12.362;2023-06-26T09:00:03;31.00;1.00
6672;DHT22;3372;48.690;12.362;2023-06-26T09:02:28;31.10;1.00
6672;DHT22;3372;48.690;12.362;2023-06-26T09:04:54;30.90;1.00
6672;DHT22;3372;48.690;12.362;2023-06-26T09:07:20;31.10;2.60
6672;DHT22;3372;48.690;12.362;2023-06-26T09:09:45;31.30;1.40
6672;DHT22;3372;48.690;12.362;2023-06-26T09:12:11;31.40;1.00
6672;DHT22;3372;48.690;12.362;2023-06-26T09:14:38;31.40;1.00
6672;DHT22;3372;48.690;12.362;2023-06-26T09:17:04;31.70;2.20
6672;DHT22;3372;48.690;12.362;2023-06-26T09:19:29;31.70;1.40
6672;DHT22;3372;48.690;12.362;2023-06-26T09:21:55;31.80;1.00
6672;DHT22;3372;48.690;12.362;2023-06-26T09:24:21;31.70;1.10
6672;DHT22;3372;48.690;12.362;2023-06-26T09:26:48;31.70;1.00
6672;DHT22;3372;48.690;12.362;2023-06-26T09:29:14;31.50;1.00
6672;DHT22;3372;48.690;12.362;2023-06-26T09:31:40;31.60;1.00
6672;DHT22;3372;48.690;12.362;2023-06-26T09:34:06;31.80;1.00
6672;DHT22;3372;48.690;12.362;2023-06-26T09:36:33;31.70;1.00
6672;DHT22;3372;48.690;12.362;2023-06-26T09:39:03;32.00;1.00
6672;DHT22;3372;48.690;12.362;2023-06-26T09:41:30;32.00;1.00
6672;DHT22;3372;48.690;12.362;2023-06-26T09:44:00;32.20;1.00
6672;DHT22;3372;48.690;12.362;2023-06-26T09:46:27;32.00;1.00
6672;DHT22;3372;48.690;12.362;2023-06-26T09:49:03;32.10;1.00
6672;DHT22;3372;48.690;12.362;2023-06-26T09:51:33;32.00;1.00
6672;DHT22;3372;48.690;12.362;2023-06-26T09:54:02;32.00;1.00
6672;DHT22;3372;48.690;12.362;2023-06-26T09:56:29;32.30;1.00
6672;DHT22;3372;48.690;12.362;2023-06-26T09:58:59;32.30;1.00
6672;DHT22;3372;48.690;12.362;2023-06-26T10:01:26;32.10;1.00
6672;DHT22;3372;48.690;12.362;2023-06-26T10:03:54;32.30;1.00
6672;DHT22;3372;48.690;12.362;2023-06-26T10:08:50;32.30;1.00
6672;DHT22;3372;48.690;12.362;2023-06-26T10:11:19;32.40;1.00
6672;DHT22;3372;48.690;12.362;2023-06-26T10:13:48;32.30;1.00
6672;DHT22;3372;48.690;12.362;2023-06-26T10:16:19;32.40;1.00
6672;DHT22;3372;48.690;12.362;2023-06-26T10:18:48;32.20;1.00
6672;DHT22;3372;48.690;12.362;2023-06-26T10:21:15;32.20;1.00
6672;DHT22;3372;48.690;12.362;2023-06-26T10:23:42;32.00;1.00
6672;DHT22;3372;48.690;12.362;2023-06-26T10:26:09;32.20;1.00
6672;DHT22;3372;48.690;12.362;2023-06-26T10:28:37;32.20;1.00
6672;DHT22;3372;48.690;12.362;2023-06-26T10:31:05;32.20;1.00
6672;DHT22;3372;48.690;12.362;2023-06-26T10:33:33;32.20;1.00
6672;DHT22;3372;48.690;12.362;2023-06-26T10:36:20;32.10;1.00
6672;DHT22;3372;48.690;12.362;2023-06-26T10:38:53;32.10;1.00
6672;DHT22;3372;48.690;12.362;2023-06-26T10:41:20;32.00;1.00
6672;DHT22;3372;48.690;12.362;2023-06-26T10:43:49;31.90;1.00
6672;DHT22;3372;48.690;12.362;2023-06-26T10:46:15;32.00;1.00
6672;DHT22;3372;48.690;12.362;2023-06-26T10:48:57;32.20;1.00
6672;DHT22;3372;48.690;12.362;2023-06-26T10:51:24;32.00;1.00
6672;DHT22;3372;48.690;12.362;2023-06-26T10:53:56;31.90;1.00
6672;DHT22;3372;48.690;12.362;2023-06-26T10:56:41;32.00;1.00
6672;DHT22;3372;48.690;12.362;2023-06-26T10:59:28;32.10;1.00
6672;DHT22;3372;48.690;12.362;2023-06-26T11:01:58;32.10;1.00
6672;DHT22;3372;48.690;12.362;2023-06-26T11:04:44;32.00;1.00
6672;DHT22;3372;48.690;12.362;2023-06-26T11:07:26;32.00;1.00
6672;DHT22;3372;48.690;12.362;2023-06-26T11:10:02;32.10;1.00
6672;DHT22;3372;48.690;12.362;2023-06-26T11:12:44;31.90;1.00
6672;DHT22;3372;48.690;12.362;2023-06-26T11:15:17;31.80;1.00
6672;DHT22;3372;48.690;12.362;2023-06-26T11:17:44;31.60;1.00
6672;DHT22;3372;48.690;12.362;2023-06-26T11:20:14;31.50;1.00
6672;DHT22;3372;48.690;12.362;2023-06-26T11:22:42;31.50;1.00
6672;DHT22;3372;48.690;12.362;2023-06-26T11:25:08;31.50;1.00
6672;DHT22;3372;48.690;12.362;2023-06-26T11:30:04;31.40;1.00
6672;DHT22;3372;48.690;12.362;2023-06-26T11:32:30;31.30;1.00
6672;DHT22;3372;48.690;12.362;2023-06-26T11:34:58;31.50;1.00
6672;DHT22;3372;48.690;12.362;2023-06-26T11:37:24;31.20;1.00
6672;DHT22;3372;48.690;12.362;2023-06-26T11:39:50;31.20;1.00
6672;DHT22;3372;48.690;12.362;2023-06-26T11:42:17;31.30;1.00
6672;DHT22;3372;48.690;12.362;2023-06-26T11:44:43;31.30;1.00
6672;DHT22;3372;48.690;12.362;2023-06-26T11:47:16;31.40;1.00
6672;DHT22;3372;48.690;12.362;2023-06-26T11:49:43;31.10;1.00
6672;DHT22;3372;48.690;12.362;2023-06-26T11:52:09;31.30;1.00
6672;DHT22;3372;48.690;12.362;2023-06-26T11:54:34;31.20;1.00
6672;DHT22;3372;48.690;12.362;2023-06-26T11:57:00;31.30;1.00
6672;DHT22;3372;48.690;12.362;2023-06-26T11:59:37;31.50;1.00
6672;DHT22;3372;48.690;12.362;2023-06-26T12:02:13;31.00;1.00
6672;DHT22;3372;48.690;12.362;2023-06-26T12:04:44;31.00;1.00
6672;DHT22;3372;48.690;12.362;2023-06-26T12:07:10;30.90;1.00
6672;DHT22;3372;48.690;12.362;2023-06-26T12:09:43;31.10;1.00
6672;DHT22;3372;48.690;12.362;2023-06-26T12:12:12;31.00;1.00
6672;DHT22;3372;48.690;12.362;2023-06-26T12:14:39;31.00;1.00
6672;DHT22;3372;48.690;12.362;2023-06-26T12:17:09;31.10;1.00
6672;DHT22;3372;48.690;12.362;2023-06-26T12:19:37;31.00;1.00
6672;DHT22;3372;48.690;12.362;2023-06-26T12:22:06;31.00;1.00
6672;DHT22;3372;48.690;12.362;2023-06-26T12:24:32;31.10;1.00
6672;DHT22;3372;48.690;12.362;2023-06-26T12:26:57;31.20;1.00
6672;DHT22;3372;48.690;12.362;2023-06-26T12:29:32;31.30;1.00
6672;DHT22;3372;48.690;12.362;2023-06-26T12:31:58;31.00;1.00
6672;DHT22;3372;48.690;12.362;2023-06-26T12:34:28;31.00;1.00
6672;DHT22;3372;48.690;12.362;2023-06-26T12:36:59;30.80;1.00
6672;DHT22;3372;48.690;12.362;2023-06-26T12:39:24;30.80;1.00
6672;DHT22;3372;48.690;12.362;2023-06-26T12:41:55;31.10;1.00
6672;DHT22;3372;48.690;12.362;2023-06-26T12:46:49;31.40;1.00
6672;DHT22;3372;48.690;12.362;2023-06-26T12:49:15;31.30;1.00
6672;DHT22;3372;48.690;12.362;2023-06-26T12:51:41;31.50;1.00
6672;DHT22;3372;48.690;12.362;2023-06-26T12:54:08;31.50;1.00
6672;DHT22;3372;48.690;12.362;2023-06-26T12:56:33;31.50;1.00
6672;DHT22;3372;48.690;12.362;2023-06-26T12:58:59;31.60;1.00
6672;DHT22;3372;48.690;12.362;2023-06-26T13:01:26;31.80;1.00
6672;DHT22;3372;48.690;12.362;2023-06-26T13:03:53;31.70;1.00
6672;DHT22;3372;48.690;12.362;2023-06-26T13:06:19;31.70;1.00
6672;DHT22;3372;48.690;12.362;2023-06-26T13:08:45;31.40;1.00
6672;DHT22;3372;48.690;12.362;2023-06-26T13:11:10;31.20;1.00
6672;DHT22;3372;48.690;12.362;2023-06-26T13:13:36;31.20;1.00
6672;DHT22;3372;48.690;12.362;2023-06-26T13:16:01;31.50;1.00
6672;DHT22;3372;48.690;12.362;2023-06-26T13:18:27;31.50;1.00
6672;DHT22;3372;48.690;12.362;2023-06-26T13:20:53;31.50;1.00
6672;DHT22;3372;48.690;12.362;2023-06-26T13:23:18;31.70;1.00
6672;DHT22;3372;48.690;12.362;2023-06-26T13:25:45;31.60;1.00
6672;DHT22;3372;48.690;12.362;2023-06-26T13:28:11;31.50;1.00
6672;DHT22;3372;48.690;12.362;2023-06-26T13:30:36;31.50;1.00
6672;DHT22;3372;48.690;12.362;2023-06-26T13:33:02;31.50;1.00
6672;DHT22;3372;48.690;12.362;2023-06-26T13:35:28;31.10;1.00
6672;DHT22;3372;48.690;12.362;2023-06-26T13:37:53;31.20;1.00
6672;DHT22;3372;48.690;12.362;2023-06-26T13:40:19;31.50;1.00
6672;DHT22;3372;48.690;12.362;2023-06-26T13:42:44;31.60;1.00
6672;DHT22;3372;48.690;12.362;2023-06-26T13:45:10;31.60;1.00
6672;DHT22;3372;48.690;12.362;2023-06-26T13:47:37;31.50;1.00
6672;DHT22;3372;48.690;12.362;2023-06-26T13:50:09;31.30;1.00
6672;DHT22;3372;48.690;12.362;2023-06-26T13:52:35;31.30;1.00
6672;DHT22;3372;48.690;12.362;2023-06-26T13:55:01;31.40;1.00
6672;DHT22;3372;48.690;12.362;2023-06-26T13:57:30;31.40;1.00
6672;DHT22;3372;48.690;12.362;2023-06-26T13:59:55;31.60;1.00
6672;DHT22;3372;48.690;12.362;2023-06-26T14:02:22;31.70;1.00
6672;DHT22;3372;48.690;12.362;2023-06-26T14:04:47;31.90;1.00
6672;DHT22;3372;48.690;12.362;2023-06-26T14:07:13;31.90;1.00
6672;DHT22;3372;48.690;12.362;2023-06-26T14:09:39;31.80;1.00
6672;DHT22;3372;48.690;12.362;2023-06-26T14:12:05;31.70;1.00
6672;DHT22;3372;48.690;12.362;2023-06-26T14:14:31;31.70;1.00
6672;DHT22;3372;48.690;12.362;2023-06-26T14:16:57;31.70;1.00
6672;DHT22;3372;48.690;12.362;2023-06-26T14:19:24;31.70;1.00
6672;DHT22;3372;48.690;12.362;2023-06-26T14:21:50;31.70;1.00
6672;DHT22;3372;48.690;12.362;2023-06-26T14:24:15;31.80;1.00
6672;DHT22;3372;48.690;12.362;2023-06-26T14:26:41;31.90;1.00
6672;DHT22;3372;48.690;12.362;2023-06-26T14:29:06;31.90;1.00
6672;DHT22;3372;48.690;12.362;2023-06-26T14:31:32;31.90;1.00
6672;DHT22;3372;48.690;12.362;2023-06-26T14:33:57;32.00;1.00
6672;DHT22;3372;48.690;12.362;2023-06-26T14:36:24;32.10;1.00
6672;DHT22;3372;48.690;12.362;2023-06-26T14:38:50;32.10;1.00
6672;DHT22;3372;48.690;12.362;2023-06-26T14:41:15;32.20;1.00
6672;DHT22;3372;48.690;12.362;2023-06-26T14:43:41;32.30;1.00
6672;DHT22;3372;48.690;12.362;2023-06-26T14:46:06;32.30;1.00
6672;DHT22;3372;48.690;12.362;2023-06-26T14:48:32;32.20;1.00
6672;DHT22;3372;48.690;12.362;2023-06-26T14:50:57;32.20;1.00
6672;DHT22;3372;48.690;12.362;2023-06-26T14:53:25;32.30;1.00
6672;DHT22;3372;48.690;12.362;2023-06-26T14:55:50;32.20;1.00
6672;DHT22;3372;48.690;12.362;2023-06-26T14:58:16;32.10;1.00
6672;DHT22;3372;48.690;12.362;2023-06-26T15:00:41;32.30;1.00
6672;DHT22;3372;48.690;12.362;2023-06-26T15:03:07;32.00;1.00
6672;DHT22;3372;48.690;12.362;2023-06-26T15:05:32;32.00;1.00
6672;DHT22;3372;48.690;12.362;2023-06-26T15:07:58;31.80;1.00
6672;DHT22;3372;48.690;12.362;2023-06-26T15:10:23;31.90;1.00
6672;DHT22;3372;48.690;12.362;2023-06-26T15:12:49;32.10;1.00
6672;DHT22;3372;48.690;12.362;2023-06-26T15:15:15;32.30;1.00
6672;DHT22;3372;48.690;12.362;2023-06-26T15:17:42;32.50;1.00
6672;DHT22;3372;48.690;12.362;2023-06-26T15:20:07;32.50;1.00
6672;DHT22;3372;48.690;12.362;2023-06-26T15:22:33;32.50;1.00
6672;DHT22;3372;48.690;12.362;2023-06-26T15:24:58;32.60;1.00
6672;DHT22;3372;48.690;12.362;2023-06-26T15:27:24;32.60;1.00
6672;DHT22;3372;48.690;12.362;2023-06-26T15:29:50;32.60;1.00
6672;DHT22;3372;48.690;12.362;2023-06-26T15:32:15;32.70;1.00
6672;DHT22;3372;48.690;12.362;2023-06-26T15:34:42;32.50;1.00
6672;DHT22;3372;48.690;12.362;2023-06-26T15:37:07;32.30;1.00
6672;DHT22;3372;48.690;12.362;2023-06-26T15:39:33;32.40;1.00
6672;DHT22;3372;48.690;12.362;2023-06-26T15:41:58;32.30;1.00
6672;DHT22;3372;48.690;12.362;2023-06-26T15:44:24;32.40;1.00
6672;DHT22;3372;48.690;12.362;2023-06-26T15:46:50;32.50;1.00
6672;DHT22;3372;48.690;12.362;2023-06-26T15:49:16;32.50;1.00
6672;DHT22;3372;48.690;12.362;2023-06-26T15:51:41;32.60;1.00
6672;DHT22;3372;48.690;12.362;2023-06-26T15:54:07;32.60;1.00
6672;DHT22;3372;48.690;12.362;2023-06-26T15:56:32;32.60;1.00
6672;DHT22;3372;48.690;12.362;2023-06-26T15:58:58;32.60;1.00
6672;DHT22;3372;48.690;12.362;2023-06-26T16:01:24;32.40;1.00